createdAt,value
2019-05-22T00:00:24.127Z,98.72
2019-05-22T00:01:24.191Z,98.62
2019-05-22T00:02:24.101Z,98.52
2019-05-22T00:03:24.095Z,98.52
2019-05-22T00:04:24.082Z,98.52
2019-05-22T00:05:24.115Z,98.52
2019-05-22T00:06:24.071Z,98.52
2019-05-22T00:07:24.050Z,98.41
2019-05-22T00:08:24.030Z,98.41
2019-05-22T00:09:24.022Z,98.52
2019-05-22T00:10:24.069Z,98.52
2019-05-22T00:11:23.999Z,98.52
2019-05-22T00:12:23.991Z,98.31
2019-05-22T00:13:23.999Z,98.31
2019-05-22T00:14:23.980Z,98.21
2019-05-22T00:15:23.959Z,98.10
2019-05-22T00:16:23.988Z,97.89
2019-05-22T00:17:23.948Z,97.79
2019-05-22T00:18:23.927Z,97.89
2019-05-22T00:19:23.917Z,98.00
2019-05-22T00:20:23.906Z,98.10
2019-05-22T00:21:23.887Z,98.21
2019-05-22T00:22:23.927Z,98.10
2019-05-22T00:23:23.875Z,98.00
2019-05-22T00:24:23.867Z,97.79
2019-05-22T00:25:23.853Z,97.79
2019-05-22T00:26:23.846Z,97.69
2019-05-22T00:27:23.826Z,97.59
2019-05-22T00:28:23.854Z,97.59
2019-05-22T00:29:23.814Z,97.79
2019-05-22T00:30:23.804Z,97.89
2019-05-22T00:31:23.785Z,98.10
2019-05-22T00:32:23.814Z,98.31
2019-05-22T00:33:23.804Z,98.41
2019-05-22T00:34:23.752Z,98.31
2019-05-22T00:35:23.764Z,98.31
2019-05-22T00:36:23.733Z,98.62
2019-05-22T00:37:23.729Z,98.52
2019-05-22T00:38:23.726Z,98.66
2019-05-22T00:39:23.734Z,98.56
2019-05-22T00:40:23.684Z,98.66
2019-05-22T00:41:23.681Z,98.66
2019-05-22T00:42:23.701Z,98.66
2019-05-22T00:43:23.650Z,98.56
2019-05-22T00:44:23.651Z,98.56
2019-05-22T00:45:23.678Z,98.66
2019-05-22T00:46:23.621Z,98.77
2019-05-22T00:47:23.629Z,98.66
2019-05-22T00:48:23.606Z,98.66
2019-05-22T00:49:23.590Z,98.66
2019-05-22T00:50:23.580Z,98.66
2019-05-22T00:51:23.601Z,98.87
2019-05-22T00:52:23.589Z,98.77
2019-05-22T00:53:23.563Z,98.87
2019-05-22T00:54:23.676Z,98.56
2019-05-22T00:55:23.529Z,98.46
2019-05-22T00:56:23.519Z,98.35
2019-05-22T00:57:23.519Z,98.35
2019-05-22T00:58:23.528Z,98.40
2019-05-22T00:59:23.487Z,98.50
2019-05-22T01:00:23.536Z,98.40
2019-05-22T01:01:23.483Z,98.40
2019-05-22T01:02:23.446Z,98.50
2019-05-22T01:03:23.441Z,98.50
2019-05-22T01:04:23.456Z,98.50
2019-05-22T01:05:23.459Z,98.50
2019-05-22T01:06:23.434Z,98.50
2019-05-22T01:07:23.395Z,98.61
2019-05-22T01:08:23.426Z,98.71
2019-05-22T01:09:23.416Z,98.71
2019-05-22T01:10:23.365Z,98.71
2019-05-22T01:11:23.363Z,98.82
2019-05-22T01:12:23.344Z,98.71
2019-05-22T01:13:23.331Z,98.71
2019-05-22T01:14:23.324Z,98.19
2019-05-22T01:15:23.344Z,98.09
2019-05-22T01:16:23.297Z,97.99
2019-05-22T01:17:23.290Z,98.09
2019-05-22T01:18:23.291Z,98.19
2019-05-22T01:19:23.272Z,97.99
2019-05-22T01:20:23.293Z,97.88
2019-05-22T01:21:23.242Z,97.47
2019-05-22T01:22:23.230Z,97.26
2019-05-22T01:23:23.225Z,97.16
2019-05-22T01:24:23.216Z,97.16
2019-05-22T01:25:23.201Z,97.36
2019-05-22T01:26:23.229Z,97.67
2019-05-22T01:27:23.201Z,97.88
2019-05-22T01:28:23.179Z,97.78
2019-05-22T01:29:23.160Z,97.78
2019-05-22T01:30:23.149Z,97.67
2019-05-22T01:31:23.137Z,97.67
2019-05-22T01:32:23.169Z,97.67
2019-05-22T01:33:23.112Z,97.78
2019-05-22T01:34:23.130Z,97.78
2019-05-22T01:35:23.087Z,97.78
2019-05-22T01:36:23.086Z,97.84
2019-05-22T01:37:23.068Z,97.74
2019-05-22T01:38:23.098Z,97.84
2019-05-22T01:39:23.047Z,97.84
2019-05-22T01:40:23.041Z,97.84
2019-05-22T01:41:23.066Z,97.88
2019-05-22T01:42:23.016Z,97.99
2019-05-22T01:43:23.014Z,98.05
2019-05-22T01:44:23.040Z,98.15
2019-05-22T01:45:22.985Z,98.15
2019-05-22T01:46:22.977Z,98.25
2019-05-22T01:47:23.027Z,98.35
2019-05-22T01:48:22.953Z,98.40
2019-05-22T01:49:22.944Z,98.35
2019-05-22T01:50:22.961Z,98.35
2019-05-22T01:51:22.914Z,98.35
2019-05-22T01:52:22.929Z,98.35
2019-05-22T01:53:22.944Z,98.35
2019-05-22T01:54:22.884Z,98.46
2019-05-22T01:55:22.872Z,98.46
2019-05-22T01:56:22.863Z,98.56
2019-05-22T01:57:22.854Z,98.56
2019-05-22T01:58:22.849Z,98.56
2019-05-22T01:59:22.888Z,98.66
2019-05-22T02:00:22.823Z,98.66
2019-05-22T02:01:22.821Z,98.56
2019-05-22T02:02:22.813Z,98.56
2019-05-22T02:03:22.794Z,98.56
2019-05-22T02:04:22.770Z,98.46
2019-05-22T02:05:22.813Z,98.46
2019-05-22T02:06:22.763Z,98.46
2019-05-22T02:07:22.749Z,98.35
2019-05-22T02:08:22.740Z,98.35
2019-05-22T02:09:22.719Z,98.35
2019-05-22T02:10:22.709Z,98.25
2019-05-22T02:11:22.739Z,98.35
2019-05-22T02:12:22.688Z,98.35
2019-05-22T02:13:22.687Z,98.35
2019-05-22T02:14:22.668Z,98.25
2019-05-22T02:15:22.667Z,98.25
2019-05-22T02:16:22.678Z,98.25
2019-05-22T02:17:22.638Z,98.25
2019-05-22T02:18:22.666Z,98.25
2019-05-22T02:19:22.623Z,98.25
2019-05-22T02:20:22.604Z,98.15
2019-05-22T02:21:22.697Z,98.25
2019-05-22T02:22:22.606Z,98.35
2019-05-22T02:23:22.573Z,98.46
2019-05-22T02:24:22.557Z,98.25
2019-05-22T02:25:22.549Z,97.94
2019-05-22T02:26:22.535Z,97.67
2019-05-22T02:27:22.556Z,97.47
2019-05-22T02:28:22.516Z,97.36
2019-05-22T02:29:22.506Z,97.26
2019-05-22T02:30:22.501Z,97.22
2019-05-22T02:31:22.534Z,97.42
2019-05-22T02:32:22.473Z,97.53
2019-05-22T02:33:22.481Z,97.74
2019-05-22T02:34:22.468Z,97.94
2019-05-22T02:35:22.445Z,98.09
2019-05-22T02:36:22.433Z,97.78
2019-05-22T02:37:22.477Z,97.88
2019-05-22T02:38:22.439Z,98.09
2019-05-22T02:39:22.412Z,98.19
2019-05-22T02:40:22.414Z,98.09
2019-05-22T02:41:22.383Z,98.19
2019-05-22T02:42:22.370Z,98.19
2019-05-22T02:43:22.395Z,98.30
2019-05-22T02:44:22.373Z,98.40
2019-05-22T02:45:22.349Z,98.50
2019-05-22T02:46:22.322Z,98.40
2019-05-22T02:47:22.312Z,98.40
2019-05-22T02:48:22.300Z,98.50
2019-05-22T02:49:22.349Z,98.50
2019-05-22T02:50:22.279Z,98.50
2019-05-22T02:51:22.306Z,98.40
2019-05-22T02:52:22.258Z,98.40
2019-05-22T02:53:22.252Z,98.40
2019-05-22T02:54:22.245Z,98.50
2019-05-22T02:55:22.281Z,98.50
2019-05-22T02:56:22.268Z,98.61
2019-05-22T02:57:22.212Z,98.61
2019-05-22T02:58:22.232Z,98.61
2019-05-22T02:59:22.179Z,98.71
2019-05-22T03:00:22.175Z,98.71
2019-05-22T03:01:22.159Z,98.71
2019-05-22T03:02:22.192Z,98.71
2019-05-22T03:03:22.175Z,98.61
2019-05-22T03:04:22.126Z,98.61
2019-05-22T03:05:22.133Z,98.61
2019-05-22T03:06:22.114Z,98.50
2019-05-22T03:07:22.094Z,98.61
2019-05-22T03:08:22.085Z,98.61
2019-05-22T03:09:22.124Z,98.61
2019-05-22T03:10:22.056Z,98.50
2019-05-22T03:11:22.045Z,98.61
2019-05-22T03:12:22.045Z,98.61
2019-05-22T03:13:22.033Z,98.50
2019-05-22T03:14:22.025Z,98.50
2019-05-22T03:15:22.109Z,98.50
2019-05-22T03:16:22.011Z,98.50
2019-05-22T03:17:22.022Z,98.40
2019-05-22T03:18:21.979Z,98.40
2019-05-22T03:19:22.008Z,98.50
2019-05-22T03:20:21.952Z,98.40
2019-05-22T03:21:21.980Z,98.40
2019-05-22T03:22:21.971Z,98.50
2019-05-22T03:23:21.941Z,98.50
2019-05-22T03:24:21.919Z,98.50
2019-05-22T03:25:21.908Z,98.61
2019-05-22T03:26:21.891Z,98.61
2019-05-22T03:27:21.880Z,98.71
2019-05-22T03:28:21.898Z,98.71
2019-05-22T03:29:21.859Z,98.71
2019-05-22T03:30:21.885Z,98.71
2019-05-22T03:31:21.847Z,98.71
2019-05-22T03:32:21.834Z,98.71
2019-05-22T03:33:21.861Z,98.71
2019-05-22T03:34:21.819Z,98.71
2019-05-22T03:35:21.808Z,98.61
2019-05-22T03:36:21.779Z,98.61
2019-05-22T03:37:21.766Z,98.61
2019-05-22T03:38:21.776Z,98.61
2019-05-22T03:39:21.787Z,98.61
2019-05-22T03:40:21.749Z,98.50
2019-05-22T03:41:21.745Z,98.50
2019-05-22T03:42:21.707Z,98.50
2019-05-22T03:43:21.737Z,98.40
2019-05-22T03:44:21.734Z,98.40
2019-05-22T03:45:21.689Z,98.40
2019-05-22T03:46:21.727Z,98.50
2019-05-22T03:47:21.666Z,98.61
2019-05-22T03:48:21.657Z,98.71
2019-05-22T03:49:29.892Z,98.71
2019-05-22T03:50:22.665Z,98.71
2019-05-22T03:51:21.623Z,98.71
2019-05-22T03:52:21.605Z,98.71
2019-05-22T03:53:21.625Z,98.71
2019-05-22T03:54:21.582Z,98.71
2019-05-22T03:55:21.626Z,98.71
2019-05-22T03:56:21.596Z,98.66
2019-05-22T03:57:21.592Z,98.66
2019-05-22T03:58:21.560Z,98.77
2019-05-22T03:59:21.552Z,98.77
2019-05-22T04:00:21.524Z,98.61
2019-05-22T04:01:21.512Z,98.61
2019-05-22T04:02:21.501Z,98.30
2019-05-22T04:03:21.536Z,98.19
2019-05-22T04:04:21.482Z,98.25
2019-05-22T04:05:21.471Z,98.25
2019-05-22T04:06:21.455Z,98.15
2019-05-22T04:07:21.502Z,98.25
2019-05-22T04:08:21.430Z,98.25
2019-05-22T04:09:21.461Z,98.15
2019-05-22T04:10:21.412Z,98.05
2019-05-22T04:11:21.408Z,97.84
2019-05-22T04:12:21.388Z,97.84
2019-05-22T04:13:21.424Z,97.74
2019-05-22T04:14:21.410Z,97.94
2019-05-22T04:15:21.362Z,98.05
2019-05-22T04:16:21.340Z,98.35
2019-05-22T04:17:21.359Z,98.46
2019-05-22T04:18:22.955Z,98.35
2019-05-22T04:19:21.314Z,98.25
2019-05-22T04:20:21.335Z,98.15
2019-05-22T04:21:21.294Z,98.35
2019-05-22T04:22:21.277Z,98.46
2019-05-22T04:23:21.315Z,98.46
2019-05-22T04:24:21.304Z,98.56
2019-05-22T04:25:21.264Z,98.56
2019-05-22T04:26:21.275Z,98.46
2019-05-22T04:27:21.245Z,98.35
2019-05-22T04:28:21.214Z,98.46
2019-05-22T04:29:21.204Z,98.25
2019-05-22T04:30:21.245Z,97.94
2019-05-22T04:31:21.196Z,97.84
2019-05-22T04:32:21.183Z,97.94
2019-05-22T04:33:21.168Z,98.05
2019-05-22T04:34:21.216Z,97.94
2019-05-22T04:35:21.209Z,97.74
2019-05-22T04:36:21.146Z,97.42
2019-05-22T04:37:21.123Z,97.42
2019-05-22T04:38:21.111Z,97.53
2019-05-22T04:39:21.139Z,97.32
2019-05-22T04:40:21.098Z,97.42
2019-05-22T04:41:21.112Z,97.63
2019-05-22T04:42:21.068Z,97.74
2019-05-22T04:43:21.177Z,97.63
2019-05-22T04:44:21.048Z,97.01
2019-05-22T04:45:21.033Z,96.70
2019-05-22T04:46:21.029Z,96.91
2019-05-22T04:47:21.061Z,96.59
2019-05-22T04:48:20.999Z,97.01
2019-05-22T04:49:21.027Z,97.22
2019-05-22T04:50:20.991Z,97.32
2019-05-22T04:51:20.967Z,97.32
2019-05-22T04:52:20.959Z,97.32
2019-05-22T04:53:20.990Z,97.42
2019-05-22T04:54:20.929Z,97.42
2019-05-22T04:55:20.917Z,97.53
2019-05-22T04:56:20.919Z,97.53
2019-05-22T04:57:21.030Z,97.53
2019-05-22T04:58:20.896Z,97.63
2019-05-22T04:59:20.885Z,97.84
2019-05-22T05:00:20.876Z,97.94
2019-05-22T05:01:20.868Z,97.94
2019-05-22T05:02:20.863Z,97.94
2019-05-22T05:03:20.880Z,97.94
2019-05-22T05:04:20.845Z,97.42
2019-05-22T05:05:20.813Z,97.32
2019-05-22T05:06:20.813Z,97.28
2019-05-22T05:07:20.797Z,97.49
2019-05-22T05:08:20.774Z,97.49
2019-05-22T05:09:20.814Z,97.28
2019-05-22T05:10:20.775Z,96.55
2019-05-22T05:11:20.750Z,95.94
2019-05-22T05:12:20.743Z,95.42
2019-05-22T05:13:20.732Z,95.42
2019-05-22T05:14:20.772Z,96.03
2019-05-22T05:15:20.708Z,96.76
2019-05-22T05:16:20.691Z,97.07
2019-05-22T05:17:20.691Z,97.38
2019-05-22T05:18:20.675Z,97.07
2019-05-22T05:19:20.662Z,97.28
2019-05-22T05:20:22.698Z,97.38
2019-05-22T05:21:20.648Z,97.49
2019-05-22T05:22:20.666Z,97.07
2019-05-22T05:23:20.629Z,96.55
2019-05-22T05:24:20.637Z,95.73
2019-05-22T05:25:20.599Z,95.62
2019-05-22T05:26:20.589Z,95.21
2019-05-22T05:27:20.579Z,95.42
2019-05-22T05:28:20.671Z,95.52
2019-05-22T05:29:20.559Z,95.73
2019-05-22T05:30:20.549Z,96.34
2019-05-22T05:31:20.536Z,96.03
2019-05-22T05:32:20.546Z,96.55
2019-05-22T05:33:20.552Z,96.97
2019-05-22T05:34:20.497Z,96.76
2019-05-22T05:35:20.516Z,96.55
2019-05-22T05:36:20.479Z,96.14
2019-05-22T05:37:20.476Z,96.14
2019-05-22T05:38:20.455Z,96.55
2019-05-22T05:39:20.537Z,96.86
2019-05-22T05:40:20.433Z,97.17
2019-05-22T05:41:20.435Z,97.17
2019-05-22T05:42:20.406Z,96.97
2019-05-22T05:43:20.405Z,96.55
2019-05-22T05:44:20.395Z,95.73
2019-05-22T05:45:20.420Z,95.83
2019-05-22T05:46:20.372Z,96.55
2019-05-22T05:47:20.368Z,96.61
2019-05-22T05:48:20.357Z,96.92
2019-05-22T05:49:20.335Z,96.72
2019-05-22T05:50:20.329Z,96.20
2019-05-22T05:51:20.360Z,96.20
2019-05-22T05:52:20.303Z,95.78
2019-05-22T05:53:20.292Z,95.48
2019-05-22T05:54:20.319Z,95.57
2019-05-22T05:55:20.272Z,95.78
2019-05-22T05:56:20.280Z,95.57
2019-05-22T05:57:20.291Z,95.89
2019-05-22T05:58:20.241Z,95.99
2019-05-22T05:59:20.231Z,96.15
2019-05-22T06:00:20.252Z,96.36
2019-05-22T06:01:20.210Z,95.95
2019-05-22T06:02:20.200Z,95.64
2019-05-22T06:03:20.240Z,95.43
2019-05-22T06:04:33.619Z,96.05
2019-05-22T06:05:21.159Z,95.43
2019-05-22T06:06:20.152Z,94.71
2019-05-22T06:07:20.139Z,94.81
2019-05-22T06:08:20.129Z,94.81
2019-05-22T06:09:20.128Z,93.37
2019-05-22T06:10:20.151Z,93.88
2019-05-22T06:11:20.111Z,93.37
2019-05-22T06:12:20.086Z,94.40
2019-05-22T06:13:20.088Z,93.68
2019-05-22T06:14:20.106Z,93.57
2019-05-22T06:15:20.047Z,94.09
2019-05-22T06:16:20.048Z,93.98
2019-05-22T06:17:20.035Z,94.29
2019-05-22T06:18:20.028Z,94.29
2019-05-22T06:19:20.016Z,93.98
2019-05-22T06:20:20.042Z,94.25
2019-05-22T06:21:20.016Z,94.25
2019-05-22T06:22:20.026Z,94.46
2019-05-22T06:23:19.976Z,95.80
2019-05-22T06:24:19.972Z,96.17
2019-05-22T06:25:19.944Z,95.86
2019-05-22T06:26:19.933Z,94.31
2019-05-22T06:27:19.925Z,93.90
2019-05-22T06:28:19.947Z,94.21
2019-05-22T06:29:19.909Z,95.09
2019-05-22T06:30:19.933Z,94.17
2019-05-22T06:31:19.882Z,93.24
2019-05-22T06:32:19.885Z,91.48
2019-05-22T06:33:19.885Z,90.49
2019-05-22T06:34:19.850Z,89.46
2019-05-22T06:35:19.832Z,90.66
2019-05-22T06:36:19.879Z,91.28
2019-05-22T06:37:19.812Z,94.27
2019-05-22T06:38:19.826Z,94.06
2019-05-22T06:39:19.790Z,94.89
2019-05-22T06:40:19.811Z,95.61
2019-05-22T06:41:19.785Z,95.71
2019-05-22T06:42:19.815Z,95.81
2019-05-22T06:43:19.756Z,95.96
2019-05-22T06:44:19.743Z,96.58
2019-05-22T06:45:19.736Z,96.06
2019-05-22T06:46:19.740Z,95.65
2019-05-22T06:47:19.702Z,95.45
2019-05-22T06:48:19.740Z,96.17
2019-05-22T06:49:19.740Z,96.48
2019-05-22T06:50:19.667Z,96.17
2019-05-22T06:51:19.926Z,96.27
2019-05-22T06:52:19.660Z,96.37
2019-05-22T06:53:19.658Z,97.20
2019-05-22T06:54:19.650Z,97.67
2019-05-22T06:55:19.656Z,97.56
2019-05-22T06:56:23.607Z,97.56
2019-05-22T06:57:19.596Z,97.47
2019-05-22T06:58:19.736Z,97.36
2019-05-22T06:59:19.606Z,97.26
2019-05-22T07:00:19.622Z,97.41
2019-05-22T07:01:19.585Z,97.30
2019-05-22T07:02:19.545Z,96.89
2019-05-22T07:03:19.547Z,97.30
2019-05-22T07:04:19.538Z,97.41
2019-05-22T07:05:19.515Z,97.82
2019-05-22T07:06:19.510Z,98.02
2019-05-22T07:07:19.556Z,98.29
2019-05-22T07:08:19.759Z,98.19
2019-05-22T07:09:19.482Z,98.29
2019-05-22T07:10:19.459Z,98.29
2019-05-22T07:11:19.445Z,98.23
2019-05-22T07:12:19.433Z,98.70
2019-05-22T07:13:19.461Z,98.91
2019-05-22T07:14:19.422Z,98.70
2019-05-22T07:15:19.399Z,98.39
2019-05-22T07:16:19.538Z,97.77
2019-05-22T07:17:19.391Z,98.19
2019-05-22T07:18:19.361Z,98.39
2019-05-22T07:19:19.441Z,98.60
2019-05-22T07:20:19.350Z,98.60
2019-05-22T07:21:33.144Z,99.01
2019-05-22T07:22:20.352Z,99.32
2019-05-22T07:23:19.310Z,98.80
2019-05-22T07:24:19.307Z,98.80
2019-05-22T07:25:19.365Z,98.60
2019-05-22T07:26:19.278Z,97.56
2019-05-22T07:27:19.269Z,97.88
2019-05-22T07:28:19.276Z,98.19
2019-05-22T07:29:19.289Z,98.60
2019-05-22T07:30:19.286Z,98.70
2019-05-22T07:31:19.267Z,98.70
2019-05-22T07:32:19.221Z,99.11
2019-05-22T07:33:19.239Z,99.27
2019-05-22T07:34:19.200Z,98.97
2019-05-22T07:35:19.218Z,99.17
2019-05-22T07:36:19.228Z,99.27
2019-05-22T07:37:19.165Z,99.07
2019-05-22T07:38:19.157Z,98.55
2019-05-22T07:39:19.135Z,98.76
2019-05-22T07:40:19.379Z,99.17
2019-05-22T07:41:19.120Z,99.07
2019-05-22T07:42:19.168Z,98.66
2019-05-22T07:43:19.183Z,98.66
2019-05-22T07:44:19.083Z,98.24
2019-05-22T07:45:19.093Z,98.35
2019-05-22T07:46:19.066Z,98.66
2019-05-22T07:47:19.089Z,98.86
2019-05-22T07:48:19.080Z,98.66
2019-05-22T07:49:19.025Z,98.60
2019-05-22T07:50:19.036Z,98.80
2019-05-22T07:51:19.004Z,99.43
2019-05-22T07:52:19.006Z,99.22
2019-05-22T07:53:18.993Z,99.43
2019-05-22T07:54:19.005Z,99.43
2019-05-22T07:55:18.965Z,99.84
2019-05-22T07:56:19.026Z,99.47
2019-05-22T07:57:18.980Z,99.47
2019-05-22T07:58:18.942Z,99.68
2019-05-22T07:59:18.928Z,99.94
2019-05-22T08:00:18.987Z,99.22
2019-05-22T08:01:18.910Z,98.85
2019-05-22T08:02:18.891Z,98.44
2019-05-22T08:03:18.922Z,99.06
2019-05-22T08:04:18.880Z,98.44
2019-05-22T08:05:18.858Z,98.54
2019-05-22T08:06:18.850Z,99.16
2019-05-22T08:07:18.841Z,99.06
2019-05-22T08:08:18.970Z,98.75
2019-05-22T08:09:18.811Z,99.06
2019-05-22T08:10:18.811Z,99.37
2019-05-22T08:11:18.794Z,99.47
2019-05-22T08:12:18.814Z,99.37
2019-05-22T08:13:18.838Z,99.37
2019-05-22T08:14:18.777Z,99.68
2019-05-22T08:15:18.813Z,99.68
2019-05-22T08:16:18.759Z,99.68
2019-05-22T08:17:18.771Z,99.68
2019-05-22T08:18:18.726Z,99.37
2019-05-22T08:19:18.775Z,99.47
2019-05-22T08:20:18.684Z,99.06
2019-05-22T08:21:18.715Z,98.70
2019-05-22T08:22:18.679Z,98.02
2019-05-22T08:23:18.655Z,97.77
2019-05-22T08:24:18.664Z,98.08
2019-05-22T08:25:18.647Z,98.70
2019-05-22T08:26:18.639Z,98.91
2019-05-22T08:27:18.642Z,98.91
2019-05-22T08:28:18.603Z,98.70
2019-05-22T08:29:18.596Z,98.70
2019-05-22T08:30:18.594Z,98.80
2019-05-22T08:31:18.584Z,99.32
2019-05-22T08:32:18.594Z,98.70
2019-05-22T08:33:18.552Z,98.29
2019-05-22T08:34:18.533Z,98.60
2019-05-22T08:35:18.534Z,98.60
2019-05-22T08:36:18.523Z,99.01
2019-05-22T08:37:18.508Z,99.22
2019-05-22T08:38:18.567Z,99.38
2019-05-22T08:39:18.505Z,99.32
2019-05-22T08:40:18.539Z,99.11
2019-05-22T08:41:18.477Z,99.22
2019-05-22T08:42:18.527Z,99.43
2019-05-22T08:43:18.516Z,99.27
2019-05-22T08:44:18.478Z,99.17
2019-05-22T08:45:18.420Z,98.76
2019-05-22T08:46:18.440Z,98.86
2019-05-22T08:47:18.636Z,98.55
2019-05-22T08:48:18.390Z,98.71
2019-05-22T08:49:18.367Z,99.02
2019-05-22T08:50:18.398Z,98.82
2019-05-22T08:51:18.363Z,99.02
2019-05-22T08:52:23.731Z,98.61
2019-05-22T08:53:19.335Z,98.61
2019-05-22T08:54:18.318Z,98.61
2019-05-22T08:55:18.305Z,98.61
2019-05-22T08:56:18.342Z,98.50
2019-05-22T08:57:18.297Z,97.68
2019-05-22T08:58:18.278Z,97.38
2019-05-22T08:59:19.918Z,97.38
2019-05-22T09:00:18.254Z,97.17
2019-05-22T09:01:18.237Z,96.96
2019-05-22T09:02:18.274Z,96.92
2019-05-22T09:03:18.215Z,96.92
2019-05-22T09:04:18.215Z,97.18
2019-05-22T09:05:21.303Z,96.67
2019-05-22T09:06:18.216Z,97.39
2019-05-22T09:07:18.309Z,97.75
2019-05-22T09:08:18.170Z,97.14
2019-05-22T09:09:18.154Z,95.80
2019-05-22T09:10:18.154Z,96.11
2019-05-22T09:11:18.131Z,96.00
2019-05-22T09:12:18.122Z,96.11
2019-05-22T09:13:18.165Z,96.00
2019-05-22T09:14:18.156Z,96.83
2019-05-22T09:15:18.130Z,97.03
2019-05-22T09:16:18.070Z,97.71
2019-05-22T09:17:18.118Z,97.09
2019-05-22T09:18:18.072Z,95.65
2019-05-22T09:19:18.051Z,95.45
2019-05-22T09:20:18.047Z,96.06
2019-05-22T09:21:18.019Z,96.37
2019-05-22T09:22:18.021Z,95.65
2019-05-22T09:23:18.062Z,95.14
2019-05-22T09:24:17.990Z,95.86
2019-05-22T09:25:17.990Z,93.90
2019-05-22T09:26:17.990Z,95.24
2019-05-22T09:27:17.989Z,93.70
2019-05-22T09:28:17.999Z,93.90
2019-05-22T09:29:17.948Z,93.39
2019-05-22T09:30:17.930Z,93.35
2019-05-22T09:31:17.936Z,94.68
2019-05-22T09:32:17.906Z,93.35
2019-05-22T09:33:17.895Z,93.14
2019-05-22T09:34:17.930Z,93.86
2019-05-22T09:35:17.927Z,93.14
2019-05-22T09:36:17.871Z,92.73
2019-05-22T09:37:17.856Z,93.44
2019-05-22T09:38:17.835Z,92.01
2019-05-22T09:39:17.858Z,92.11
2019-05-22T09:40:17.830Z,92.11
2019-05-22T09:41:17.845Z,92.69
2019-05-22T09:42:17.855Z,91.76
2019-05-22T09:43:17.791Z,92.48
2019-05-22T09:44:17.787Z,91.55
2019-05-22T09:45:17.829Z,91.35
2019-05-22T09:46:17.754Z,90.63
2019-05-22T09:47:17.801Z,89.50
2019-05-22T09:48:17.754Z,89.09
2019-05-22T09:49:17.767Z,88.68
2019-05-22T09:50:17.714Z,89.70
2019-05-22T09:51:17.702Z,90.32
2019-05-22T09:52:17.695Z,89.19
2019-05-22T09:53:17.721Z,88.37
2019-05-22T09:54:17.712Z,90.01
2019-05-22T09:55:17.667Z,90.48
2019-05-22T09:56:17.667Z,89.40
2019-05-22T09:57:17.643Z,88.06
2019-05-22T09:58:17.674Z,87.75
2019-05-22T09:59:17.621Z,89.29
2019-05-22T10:00:17.611Z,87.45
2019-05-22T10:01:17.601Z,87.61
2019-05-22T10:02:17.641Z,84.32
2019-05-22T10:03:17.618Z,85.62
2019-05-22T10:04:17.571Z,86.44
2019-05-22T10:05:17.548Z,86.13
2019-05-22T10:06:17.541Z,84.39
2019-05-22T10:07:17.541Z,84.39
2019-05-22T10:08:17.519Z,84.25
2019-05-22T10:09:17.552Z,84.08
2019-05-22T10:10:17.507Z,85.00
2019-05-22T10:11:17.491Z,86.30
2019-05-22T10:12:17.477Z,86.09
2019-05-22T10:13:17.488Z,85.78
2019-05-22T10:14:17.476Z,84.96
2019-05-22T10:15:17.478Z,84.34
2019-05-22T10:16:17.457Z,86.91
2019-05-22T10:17:17.418Z,86.71
2019-05-22T10:18:17.416Z,85.74
2019-05-22T10:19:17.398Z,86.50
2019-05-22T10:20:17.387Z,87.12
2019-05-22T10:21:17.415Z,86.71
2019-05-22T10:22:17.375Z,86.19
2019-05-22T10:23:17.369Z,84.45
2019-05-22T10:24:17.364Z,84.86
2019-05-22T10:25:17.544Z,84.86
2019-05-22T10:26:17.354Z,84.76
2019-05-22T10:27:17.316Z,84.66
2019-05-22T10:28:17.363Z,85.64
2019-05-22T10:29:17.284Z,86.57
2019-05-22T10:30:17.283Z,84.61
2019-05-22T10:31:17.995Z,83.49
2019-05-22T10:32:17.293Z,85.33
2019-05-22T10:33:17.254Z,86.57
2019-05-22T10:34:17.255Z,86.46
2019-05-22T10:35:17.221Z,87.59
2019-05-22T10:36:17.214Z,88.27
2019-05-22T10:37:17.202Z,85.80
2019-05-22T10:38:17.277Z,86.01
2019-05-22T10:39:17.181Z,87.34
2019-05-22T10:40:17.174Z,87.76
2019-05-22T10:41:17.200Z,84.88
2019-05-22T10:42:17.151Z,85.91
2019-05-22T10:43:17.234Z,84.78
2019-05-22T10:44:17.130Z,87.04
2019-05-22T10:45:17.108Z,87.65
2019-05-22T10:46:17.110Z,87.51
2019-05-22T10:47:18.857Z,87.45
2019-05-22T10:48:17.069Z,88.57
2019-05-22T10:49:17.069Z,88.47
2019-05-22T10:50:17.062Z,88.92
2019-05-22T10:51:17.057Z,87.90
2019-05-22T10:52:17.068Z,88.17
2019-05-22T10:53:32.516Z,87.55
2019-05-22T10:54:18.022Z,87.14
2019-05-22T10:55:17.022Z,88.10
2019-05-22T10:56:16.999Z,88.51
2019-05-22T10:57:17.017Z,89.43
2019-05-22T10:58:16.973Z,88.10
2019-05-22T10:59:16.956Z,86.87
2019-05-22T11:00:16.969Z,86.93
2019-05-22T11:01:16.936Z,86.77
2019-05-22T11:02:16.924Z,86.57
2019-05-22T11:03:16.981Z,87.08
2019-05-22T11:04:19.285Z,87.49
2019-05-22T11:05:16.922Z,87.79
2019-05-22T11:06:16.887Z,88.72
2019-05-22T11:07:16.907Z,89.03
2019-05-22T11:08:16.855Z,88.66
2019-05-22T11:09:16.865Z,89.17
2019-05-22T11:10:16.828Z,89.07
2019-05-22T11:11:16.824Z,89.48
2019-05-22T11:12:16.815Z,89.64
2019-05-22T11:13:16.833Z,89.84
2019-05-22T11:14:16.803Z,88.57
2019-05-22T11:15:16.782Z,88.68
2019-05-22T11:16:16.796Z,87.55
2019-05-22T11:17:16.752Z,87.71
2019-05-22T11:18:16.773Z,85.97
2019-05-22T11:19:16.777Z,85.05
2019-05-22T11:20:16.723Z,86.14
2019-05-22T11:21:16.723Z,86.10
2019-05-22T11:22:16.712Z,84.77
2019-05-22T11:23:16.682Z,84.63
2019-05-22T11:24:16.713Z,84.07
2019-05-22T11:25:16.661Z,82.23
2019-05-22T11:26:16.667Z,81.93
2019-05-22T11:27:16.642Z,83.46
2019-05-22T11:28:16.638Z,83.19
2019-05-22T11:29:16.642Z,84.25
2019-05-22T11:30:16.653Z,83.23
2019-05-22T11:31:16.608Z,84.05
2019-05-22T11:32:16.590Z,86.10
2019-05-22T11:33:16.572Z,84.36
2019-05-22T11:34:16.561Z,84.25
2019-05-22T11:35:16.558Z,84.87
2019-05-22T11:36:16.582Z,83.64
2019-05-22T11:37:16.587Z,83.13
2019-05-22T11:38:16.568Z,83.64
2019-05-22T11:39:16.519Z,82.51
2019-05-22T11:40:16.509Z,83.54
2019-05-22T11:41:16.488Z,82.65
2019-05-22T11:42:16.519Z,82.24
2019-05-22T11:43:16.468Z,82.45
2019-05-22T11:44:16.458Z,81.26
2019-05-22T11:45:16.439Z,82.59
2019-05-22T11:46:16.439Z,81.98
2019-05-22T11:47:16.426Z,83.31
2019-05-22T11:48:16.466Z,82.90
2019-05-22T11:49:16.407Z,82.86
2019-05-22T11:50:16.405Z,84.70
2019-05-22T11:51:16.378Z,84.33
2019-05-22T11:52:16.406Z,83.72
2019-05-22T11:53:16.426Z,83.82
2019-05-22T11:54:16.356Z,84.80
2019-05-22T11:55:16.335Z,84.60
2019-05-22T11:56:19.978Z,82.65
2019-05-22T11:57:16.375Z,82.65
2019-05-22T11:58:16.304Z,82.90
2019-05-22T11:59:16.333Z,83.00
2019-05-22T12:00:16.283Z,83.61
2019-05-22T12:01:16.274Z,83.82
2019-05-22T12:02:16.255Z,83.20
2019-05-22T12:03:16.244Z,83.10
2019-05-22T12:04:16.246Z,83.27
2019-05-22T12:05:16.263Z,85.11
2019-05-22T12:06:16.233Z,83.68
2019-05-22T12:07:16.202Z,83.88
2019-05-22T12:08:16.192Z,83.37
2019-05-22T12:09:16.234Z,81.94
2019-05-22T12:10:16.162Z,82.65
2019-05-22T12:11:16.205Z,82.45
2019-05-22T12:12:16.177Z,83.58
2019-05-22T12:13:16.143Z,83.88
2019-05-22T12:14:16.134Z,82.55
2019-05-22T12:15:16.179Z,82.35
2019-05-22T12:16:16.124Z,82.86
2019-05-22T12:17:16.112Z,83.27
2019-05-22T12:18:16.080Z,82.96
2019-05-22T12:19:16.074Z,81.73
2019-05-22T12:20:16.107Z,83.06
2019-05-22T12:21:16.053Z,83.33
2019-05-22T12:22:19.697Z,83.23
2019-05-22T12:23:16.032Z,81.90
2019-05-22T12:24:27.031Z,80.81
2019-05-22T12:25:17.058Z,81.22
2019-05-22T12:26:15.999Z,79.99
2019-05-22T12:27:15.991Z,79.99
2019-05-22T12:28:15.978Z,82.71
2019-05-22T12:29:17.294Z,79.85
2019-05-22T12:30:16.138Z,78.72
2019-05-22T12:31:15.993Z,81.18
2019-05-22T12:32:15.935Z,78.63
2019-05-22T12:33:15.933Z,78.93
2019-05-22T12:34:15.947Z,79.85
2019-05-22T12:35:15.899Z,78.83
2019-05-22T12:36:15.892Z,79.75
2019-05-22T12:37:15.916Z,79.44
2019-05-22T12:38:15.904Z,79.44
2019-05-22T12:39:15.855Z,78.52
2019-05-22T12:40:15.884Z,78.89
2019-05-22T12:41:15.836Z,79.71
2019-05-22T12:42:15.833Z,77.46
2019-05-22T12:43:15.835Z,79.10
2019-05-22T12:44:15.814Z,79.61
2019-05-22T12:45:15.785Z,77.56
2019-05-22T12:46:15.816Z,77.83
2019-05-22T12:47:15.769Z,78.75
2019-05-22T12:48:15.754Z,78.61
2019-05-22T12:49:15.746Z,79.29
2019-05-22T12:50:15.740Z,76.74
2019-05-22T12:51:15.774Z,80.32
2019-05-22T12:52:15.724Z,77.76